sensor_id;sensor_type;location;lat;lon;timestamp;P1;durP1;ratioP1;P2;durP2;ratioP2
19776;SDS011;10047;42.490;26.012;2023-07-22T00:01:36;10.52;;;9.02;;
19776;SDS011;10047;42.490;26.012;2023-07-22T00:04:02;11.45;;;8.57;;
19776;SDS011;10047;42.490;26.012;2023-07-22T00:06:28;12.98;;;8.93;;
19776;SDS011;10047;42.490;26.012;2023-07-22T00:08:53;11.18;;;8.30;;
19776;SDS011;10047;42.490;26.012;2023-07-22T00:11:19;14.43;;;10.02;;
19776;SDS011;10047;42.490;26.012;2023-07-22T00:13:45;12.43;;;9.13;;
19776;SDS011;10047;42.490;26.012;2023-07-22T00:16:10;13.20;;;10.80;;
19776;SDS011;10047;42.490;26.012;2023-07-22T00:18:36;13.05;;;10.02;;
19776;SDS011;10047;42.490;26.012;2023-07-22T00:21:01;12.15;;;10.85;;
19776;SDS011;10047;42.490;26.012;2023-07-22T00:23:27;13.25;;;10.20;;
19776;SDS011;10047;42.490;26.012;2023-07-22T00:25:52;11.10;;;10.00;;
19776;SDS011;10047;42.490;26.012;2023-07-22T00:28:18;14.07;;;10.20;;
19776;SDS011;10047;42.490;26.012;2023-07-22T00:30:43;11.45;;;10.07;;
19776;SDS011;10047;42.490;26.012;2023-07-22T00:33:09;12.23;;;10.82;;
19776;SDS011;10047;42.490;26.012;2023-07-22T00:35:35;13.10;;;10.65;;
19776;SDS011;10047;42.490;26.012;2023-07-22T00:38:00;12.07;;;9.05;;
19776;SDS011;10047;42.490;26.012;2023-07-22T00:40:26;12.23;;;10.23;;
19776;SDS011;10047;42.490;26.012;2023-07-22T00:42:52;13.65;;;9.90;;
19776;SDS011;10047;42.490;26.012;2023-07-22T00:45:17;14.30;;;9.77;;
19776;SDS011;10047;42.490;26.012;2023-07-22T00:47:43;12.63;;;9.65;;
19776;SDS011;10047;42.490;26.012;2023-07-22T00:50:09;12.57;;;9.65;;
19776;SDS011;10047;42.490;26.012;2023-07-22T00:52:35;10.88;;;9.75;;
19776;SDS011;10047;42.490;26.012;2023-07-22T00:55:01;13.88;;;9.85;;
19776;SDS011;10047;42.490;26.012;2023-07-22T00:57:28;11.85;;;9.35;;
19776;SDS011;10047;42.490;26.012;2023-07-22T00:59:54;13.20;;;10.18;;
19776;SDS011;10047;42.490;26.012;2023-07-22T01:02:21;12.32;;;10.13;;
19776;SDS011;10047;42.490;26.012;2023-07-22T01:04:47;13.90;;;10.00;;
19776;SDS011;10047;42.490;26.012;2023-07-22T01:07:14;16.13;;;10.10;;
19776;SDS011;10047;42.490;26.012;2023-07-22T01:09:41;11.38;;;9.93;;
19776;SDS011;10047;42.490;26.012;2023-07-22T01:12:08;15.27;;;10.80;;
19776;SDS011;10047;42.490;26.012;2023-07-22T01:14:34;15.43;;;11.18;;
19776;SDS011;10047;42.490;26.012;2023-07-22T01:17:01;13.07;;;10.75;;
19776;SDS011;10047;42.490;26.012;2023-07-22T01:22:50;14.85;;;11.55;;
19776;SDS011;10047;42.490;26.012;2023-07-22T01:25:17;13.57;;;10.73;;
19776;SDS011;10047;42.490;26.012;2023-07-22T01:27:47;13.18;;;10.98;;
19776;SDS011;10047;42.490;26.012;2023-07-22T01:30:14;14.95;;;10.82;;
19776;SDS011;10047;42.490;26.012;2023-07-22T01:32:39;15.93;;;12.18;;
19776;SDS011;10047;42.490;26.012;2023-07-22T01:35:05;13.05;;;10.45;;
19776;SDS011;10047;42.490;26.012;2023-07-22T01:40:54;12.60;;;10.52;;
19776;SDS011;10047;42.490;26.012;2023-07-22T01:46:41;15.13;;;11.70;;
19776;SDS011;10047;42.490;26.012;2023-07-22T01:49:09;12.60;;;11.20;;
19776;SDS011;10047;42.490;26.012;2023-07-22T01:51:40;14.95;;;11.95;;
19776;SDS011;10047;42.490;26.012;2023-07-22T01:54:05;14.50;;;10.75;;
19776;SDS011;10047;42.490;26.012;2023-07-22T01:56:31;14.75;;;11.30;;
19776;SDS011;10047;42.490;26.012;2023-07-22T01:58:57;12.27;;;10.25;;
19776;SDS011;10047;42.490;26.012;2023-07-22T02:01:22;14.63;;;10.57;;
19776;SDS011;10047;42.490;26.012;2023-07-22T02:03:48;13.65;;;10.23;;
19776;SDS011;10047;42.490;26.012;2023-07-22T02:06:13;13.00;;;10.32;;
19776;SDS011;10047;42.490;26.012;2023-07-22T02:12:00;11.68;;;10.48;;
19776;SDS011;10047;42.490;26.012;2023-07-22T02:17:48;12.82;;;11.18;;
19776;SDS011;10047;42.490;26.012;2023-07-22T02:20:13;14.30;;;11.20;;
19776;SDS011;10047;42.490;26.012;2023-07-22T02:22:39;15.70;;;11.60;;
19776;SDS011;10047;42.490;26.012;2023-07-22T02:25:04;15.63;;;12.25;;
19776;SDS011;10047;42.490;26.012;2023-07-22T02:27:31;14.73;;;12.02;;
19776;SDS011;10047;42.490;26.012;2023-07-22T02:29:57;14.65;;;12.27;;
19776;SDS011;10047;42.490;26.012;2023-07-22T02:32:22;15.48;;;12.00;;
19776;SDS011;10047;42.490;26.012;2023-07-22T02:34:48;12.60;;;11.30;;
19776;SDS011;10047;42.490;26.012;2023-07-22T02:37:13;14.05;;;11.25;;
19776;SDS011;10047;42.490;26.012;2023-07-22T02:39:38;14.93;;;11.70;;
19776;SDS011;10047;42.490;26.012;2023-07-22T02:42:04;15.50;;;12.85;;
19776;SDS011;10047;42.490;26.012;2023-07-22T02:44:29;17.95;;;12.98;;
19776;SDS011;10047;42.490;26.012;2023-07-22T02:46:55;17.10;;;13.40;;
19776;SDS011;10047;42.490;26.012;2023-07-22T02:49:20;15.82;;;12.57;;
19776;SDS011;10047;42.490;26.012;2023-07-22T02:51:46;13.95;;;12.52;;
19776;SDS011;10047;42.490;26.012;2023-07-22T02:54:11;16.50;;;13.07;;
19776;SDS011;10047;42.490;26.012;2023-07-22T02:59:58;14.98;;;13.27;;
19776;SDS011;10047;42.490;26.012;2023-07-22T03:02:23;15.75;;;13.57;;
19776;SDS011;10047;42.490;26.012;2023-07-22T03:04:48;18.30;;;14.48;;
19776;SDS011;10047;42.490;26.012;2023-07-22T03:07:14;17.98;;;13.90;;
19776;SDS011;10047;42.490;26.012;2023-07-22T03:13:02;17.13;;;15.00;;
19776;SDS011;10047;42.490;26.012;2023-07-22T03:15:28;17.63;;;14.60;;
19776;SDS011;10047;42.490;26.012;2023-07-22T03:17:54;15.60;;;14.00;;
19776;SDS011;10047;42.490;26.012;2023-07-22T03:20:21;15.68;;;14.10;;
19776;SDS011;10047;42.490;26.012;2023-07-22T03:22:48;17.42;;;14.57;;
19776;SDS011;10047;42.490;26.012;2023-07-22T03:25:14;15.65;;;14.00;;
19776;SDS011;10047;42.490;26.012;2023-07-22T03:27:42;15.88;;;14.18;;
19776;SDS011;10047;42.490;26.012;2023-07-22T03:33:29;18.17;;;14.63;;
19776;SDS011;10047;42.490;26.012;2023-07-22T03:39:16;17.13;;;15.13;;
19776;SDS011;10047;42.490;26.012;2023-07-22T03:41:42;18.23;;;14.73;;
19776;SDS011;10047;42.490;26.012;2023-07-22T03:44:07;18.13;;;14.02;;
19776;SDS011;10047;42.490;26.012;2023-07-22T03:46:32;18.17;;;14.10;;
19776;SDS011;10047;42.490;26.012;2023-07-22T03:48:58;17.58;;;14.13;;
19776;SDS011;10047;42.490;26.012;2023-07-22T03:51:23;17.98;;;14.00;;
19776;SDS011;10047;42.490;26.012;2023-07-22T03:53:48;18.05;;;13.93;;
19776;SDS011;10047;42.490;26.012;2023-07-22T03:56:14;17.90;;;14.25;;
19776;SDS011;10047;42.490;26.012;2023-07-22T03:58:39;22.15;;;13.88;;
19776;SDS011;10047;42.490;26.012;2023-07-22T04:01:05;18.15;;;14.63;;
19776;SDS011;10047;42.490;26.012;2023-07-22T04:06:52;16.27;;;13.70;;
19776;SDS011;10047;42.490;26.012;2023-07-22T04:09:17;18.60;;;15.38;;
19776;SDS011;10047;42.490;26.012;2023-07-22T04:11:42;18.13;;;15.77;;
19776;SDS011;10047;42.490;26.012;2023-07-22T04:14:08;19.00;;;16.60;;
19776;SDS011;10047;42.490;26.012;2023-07-22T04:16:33;18.13;;;14.95;;
19776;SDS011;10047;42.490;26.012;2023-07-22T04:18:59;15.43;;;13.70;;
19776;SDS011;10047;42.490;26.012;2023-07-22T04:21:24;16.58;;;14.05;;
19776;SDS011;10047;42.490;26.012;2023-07-22T04:23:50;18.38;;;14.60;;
19776;SDS011;10047;42.490;26.012;2023-07-22T04:26:15;17.13;;;14.60;;
19776;SDS011;10047;42.490;26.012;2023-07-22T04:28:41;19.40;;;15.18;;
19776;SDS011;10047;42.490;26.012;2023-07-22T04:31:06;16.98;;;15.10;;
19776;SDS011;10047;42.490;26.012;2023-07-22T04:33:32;16.38;;;14.68;;
19776;SDS011;10047;42.490;26.012;2023-07-22T04:35:58;18.42;;;15.25;;
19776;SDS011;10047;42.490;26.012;2023-07-22T04:38:25;19.50;;;15.90;;
19776;SDS011;10047;42.490;26.012;2023-07-22T04:40:51;19.60;;;15.57;;
19776;SDS011;10047;42.490;26.012;2023-07-22T04:43:16;19.42;;;15.27;;
19776;SDS011;10047;42.490;26.012;2023-07-22T04:45:44;22.38;;;17.05;;
19776;SDS011;10047;42.490;26.012;2023-07-22T04:48:10;17.88;;;16.08;;
19776;SDS011;10047;42.490;26.012;2023-07-22T04:50:36;18.65;;;16.35;;
19776;SDS011;10047;42.490;26.012;2023-07-22T04:53:05;16.92;;;14.73;;
19776;SDS011;10047;42.490;26.012;2023-07-22T04:58:52;17.75;;;14.13;;
19776;SDS011;10047;42.490;26.012;2023-07-22T05:01:17;16.33;;;12.77;;
19776;SDS011;10047;42.490;26.012;2023-07-22T05:03:43;15.18;;;13.57;;
19776;SDS011;10047;42.490;26.012;2023-07-22T05:06:08;15.85;;;14.15;;
19776;SDS011;10047;42.490;26.012;2023-07-22T05:11:55;16.17;;;13.88;;
19776;SDS011;10047;42.490;26.012;2023-07-22T05:17:42;16.35;;;12.68;;
19776;SDS011;10047;42.490;26.012;2023-07-22T05:20:08;13.43;;;11.95;;
19776;SDS011;10047;42.490;26.012;2023-07-22T05:22:37;16.42;;;12.65;;
19776;SDS011;10047;42.490;26.012;2023-07-22T05:28:24;13.60;;;12.20;;
19776;SDS011;10047;42.490;26.012;2023-07-22T05:30:49;12.52;;;10.95;;
19776;SDS011;10047;42.490;26.012;2023-07-22T05:33:15;14.32;;;10.98;;
19776;SDS011;10047;42.490;26.012;2023-07-22T05:35:40;13.35;;;11.25;;
19776;SDS011;10047;42.490;26.012;2023-07-22T05:38:05;15.57;;;10.30;;
19776;SDS011;10047;42.490;26.012;2023-07-22T05:40:31;13.05;;;9.40;;
19776;SDS011;10047;42.490;26.012;2023-07-22T05:42:57;11.73;;;10.60;;
19776;SDS011;10047;42.490;26.012;2023-07-22T05:48:44;16.48;;;10.95;;
19776;SDS011;10047;42.490;26.012;2023-07-22T05:51:10;11.48;;;10.38;;
19776;SDS011;10047;42.490;26.012;2023-07-22T05:53:35;11.07;;;9.30;;
19776;SDS011;10047;42.490;26.012;2023-07-22T05:56:01;12.00;;;9.60;;
19776;SDS011;10047;42.490;26.012;2023-07-22T06:01:48;13.90;;;10.20;;
19776;SDS011;10047;42.490;26.012;2023-07-22T06:04:13;15.73;;;9.40;;
19776;SDS011;10047;42.490;26.012;2023-07-22T06:06:39;12.20;;;9.05;;
19776;SDS011;10047;42.490;26.012;2023-07-22T06:09:04;10.82;;;8.00;;
19776;SDS011;10047;42.490;26.012;2023-07-22T06:17:16;12.47;;;7.40;;
19776;SDS011;10047;42.490;26.012;2023-07-22T06:19:42;10.82;;;6.68;;
19776;SDS011;10047;42.490;26.012;2023-07-22T06:27:54;11.27;;;7.28;;
19776;SDS011;10047;42.490;26.012;2023-07-22T06:30:20;10.40;;;7.20;;
19776;SDS011;10047;42.490;26.012;2023-07-22T06:32:45;10.55;;;7.28;;
19776;SDS011;10047;42.490;26.012;2023-07-22T06:35:11;9.27;;;7.32;;
19776;SDS011;10047;42.490;26.012;2023-07-22T06:37:36;10.82;;;6.70;;
19776;SDS011;10047;42.490;26.012;2023-07-22T06:40:02;9.80;;;7.40;;
19776;SDS011;10047;42.490;26.012;2023-07-22T06:42:29;14.15;;;7.03;;
19776;SDS011;10047;42.490;26.012;2023-07-22T06:44:54;12.73;;;7.68;;
19776;SDS011;10047;42.490;26.012;2023-07-22T06:47:20;11.30;;;7.10;;
19776;SDS011;10047;42.490;26.012;2023-07-22T06:55:32;8.60;;;7.22;;
19776;SDS011;10047;42.490;26.012;2023-07-22T06:57:57;12.60;;;7.63;;
19776;SDS011;10047;42.490;26.012;2023-07-22T07:00:23;13.13;;;7.68;;
19776;SDS011;10047;42.490;26.012;2023-07-22T07:08:35;12.83;;;8.00;;
19776;SDS011;10047;42.490;26.012;2023-07-22T07:11:02;10.27;;;7.40;;
19776;SDS011;10047;42.490;26.012;2023-07-22T07:13:27;11.85;;;7.70;;
19776;SDS011;10047;42.490;26.012;2023-07-22T07:19:14;9.93;;;7.60;;
19776;SDS011;10047;42.490;26.012;2023-07-22T07:21:39;13.00;;;7.90;;
19776;SDS011;10047;42.490;26.012;2023-07-22T07:24:05;13.48;;;7.38;;
19776;SDS011;10047;42.490;26.012;2023-07-22T07:26:31;11.07;;;7.72;;
19776;SDS011;10047;42.490;26.012;2023-07-22T07:28:56;12.45;;;7.88;;
19776;SDS011;10047;42.490;26.012;2023-07-22T07:31:21;11.18;;;7.68;;
19776;SDS011;10047;42.490;26.012;2023-07-22T07:42:55;10.85;;;7.50;;
19776;SDS011;10047;42.490;26.012;2023-07-22T07:45:20;17.70;;;7.20;;
19776;SDS011;10047;42.490;26.012;2023-07-22T07:47:46;9.48;;;6.97;;
19776;SDS011;10047;42.490;26.012;2023-07-22T07:50:12;8.52;;;7.53;;
19776;SDS011;10047;42.490;26.012;2023-07-22T07:52:37;9.82;;;7.25;;
19776;SDS011;10047;42.490;26.012;2023-07-22T07:55:03;9.52;;;7.35;;
19776;SDS011;10047;42.490;26.012;2023-07-22T07:57:29;9.90;;;7.35;;
19776;SDS011;10047;42.490;26.012;2023-07-22T07:59:54;9.07;;;7.13;;
19776;SDS011;10047;42.490;26.012;2023-07-22T08:02:20;12.45;;;7.35;;
19776;SDS011;10047;42.490;26.012;2023-07-22T08:04:45;8.82;;;7.00;;
19776;SDS011;10047;42.490;26.012;2023-07-22T08:07:14;10.55;;;7.13;;
19776;SDS011;10047;42.490;26.012;2023-07-22T08:13:02;9.23;;;6.50;;
19776;SDS011;10047;42.490;26.012;2023-07-22T08:15:28;11.75;;;6.60;;
19776;SDS011;10047;42.490;26.012;2023-07-22T08:17:53;12.23;;;6.95;;
19776;SDS011;10047;42.490;26.012;2023-07-22T08:20:18;11.32;;;6.95;;
19776;SDS011;10047;42.490;26.012;2023-07-22T08:22:44;18.17;;;6.80;;
19776;SDS011;10047;42.490;26.012;2023-07-22T08:25:09;7.82;;;6.85;;
19776;SDS011;10047;42.490;26.012;2023-07-22T08:27:35;11.32;;;7.00;;
19776;SDS011;10047;42.490;26.012;2023-07-22T08:33:24;11.63;;;7.32;;
19776;SDS011;10047;42.490;26.012;2023-07-22T08:35:50;7.97;;;6.45;;
19776;SDS011;10047;42.490;26.012;2023-07-22T08:38:16;9.88;;;7.10;;
19776;SDS011;10047;42.490;26.012;2023-07-22T08:40:42;9.88;;;7.20;;
19776;SDS011;10047;42.490;26.012;2023-07-22T08:46:29;12.70;;;7.75;;
19776;SDS011;10047;42.490;26.012;2023-07-22T08:48:59;11.48;;;7.25;;
19776;SDS011;10047;42.490;26.012;2023-07-22T08:51:25;8.52;;;7.07;;
19776;SDS011;10047;42.490;26.012;2023-07-22T08:53:53;7.80;;;6.93;;
19776;SDS011;10047;42.490;26.012;2023-07-22T08:56:23;42.35;;;10.55;;
19776;SDS011;10047;42.490;26.012;2023-07-22T08:58:50;10.43;;;7.10;;
19776;SDS011;10047;42.490;26.012;2023-07-22T09:01:17;12.95;;;7.45;;
19776;SDS011;10047;42.490;26.012;2023-07-22T09:03:43;10.30;;;7.68;;
19776;SDS011;10047;42.490;26.012;2023-07-22T09:06:09;10.25;;;7.65;;
19776;SDS011;10047;42.490;26.012;2023-07-22T09:08:35;9.40;;;6.90;;
19776;SDS011;10047;42.490;26.012;2023-07-22T09:11:01;9.05;;;7.18;;
19776;SDS011;10047;42.490;26.012;2023-07-22T09:13:27;16.30;;;7.40;;
19776;SDS011;10047;42.490;26.012;2023-07-22T09:15:53;9.15;;;6.95;;
19776;SDS011;10047;42.490;26.012;2023-07-22T09:21:44;11.82;;;7.78;;
19776;SDS011;10047;42.490;26.012;2023-07-22T09:24:19;13.73;;;7.82;;
19776;SDS011;10047;42.490;26.012;2023-07-22T09:26:49;9.40;;;7.05;;
19776;SDS011;10047;42.490;26.012;2023-07-22T09:29:15;11.70;;;7.53;;
19776;SDS011;10047;42.490;26.012;2023-07-22T09:31:51;13.02;;;7.47;;
19776;SDS011;10047;42.490;26.012;2023-07-22T09:37:40;14.30;;;7.28;;
19776;SDS011;10047;42.490;26.012;2023-07-22T09:40:16;10.13;;;6.97;;
19776;SDS011;10047;42.490;26.012;2023-07-22T09:42:47;8.48;;;6.35;;
19776;SDS011;10047;42.490;26.012;2023-07-22T09:45:17;9.70;;;6.97;;
19776;SDS011;10047;42.490;26.012;2023-07-22T09:47:44;8.45;;;6.80;;
19776;SDS011;10047;42.490;26.012;2023-07-22T09:50:17;10.25;;;7.30;;
19776;SDS011;10047;42.490;26.012;2023-07-22T09:52:46;10.27;;;6.70;;
19776;SDS011;10047;42.490;26.012;2023-07-22T09:55:14;17.23;;;7.00;;
19776;SDS011;10047;42.490;26.012;2023-07-22T10:01:02;9.07;;;7.28;;
19776;SDS011;10047;42.490;26.012;2023-07-22T10:03:29;7.93;;;6.68;;
19776;SDS011;10047;42.490;26.012;2023-07-22T10:05:56;11.15;;;7.25;;
19776;SDS011;10047;42.490;26.012;2023-07-22T10:08:25;12.60;;;6.78;;
19776;SDS011;10047;42.490;26.012;2023-07-22T10:14:40;11.13;;;7.13;;
19776;SDS011;10047;42.490;26.012;2023-07-22T10:17:06;10.35;;;6.85;;
19776;SDS011;10047;42.490;26.012;2023-07-22T10:19:34;11.77;;;7.60;;
19776;SDS011;10047;42.490;26.012;2023-07-22T10:25:21;11.68;;;7.20;;
19776;SDS011;10047;42.490;26.012;2023-07-22T10:27:51;11.40;;;7.00;;
19776;SDS011;10047;42.490;26.012;2023-07-22T10:30:18;12.35;;;7.40;;
19776;SDS011;10047;42.490;26.012;2023-07-22T10:36:06;9.73;;;7.20;;
19776;SDS011;10047;42.490;26.012;2023-07-22T10:38:34;10.93;;;7.68;;
19776;SDS011;10047;42.490;26.012;2023-07-22T10:41:01;11.70;;;7.28;;
19776;SDS011;10047;42.490;26.012;2023-07-22T10:43:36;13.05;;;7.68;;
19776;SDS011;10047;42.490;26.012;2023-07-22T10:46:11;13.68;;;7.95;;
19776;SDS011;10047;42.490;26.012;2023-07-22T10:48:41;12.75;;;7.57;;
19776;SDS011;10047;42.490;26.012;2023-07-22T10:51:09;13.55;;;7.65;;
19776;SDS011;10047;42.490;26.012;2023-07-22T10:53:42;9.43;;;7.53;;
19776;SDS011;10047;42.490;26.012;2023-07-22T10:59:32;10.13;;;7.60;;
19776;SDS011;10047;42.490;26.012;2023-07-22T11:01:59;14.52;;;7.97;;
19776;SDS011;10047;42.490;26.012;2023-07-22T11:04:25;9.82;;;7.63;;
19776;SDS011;10047;42.490;26.012;2023-07-22T11:07:00;15.50;;;7.78;;
19776;SDS011;10047;42.490;26.012;2023-07-22T11:14:24;16.10;;;7.60;;
19776;SDS011;10047;42.490;26.012;2023-07-22T11:16:51;11.45;;;7.32;;
19776;SDS011;10047;42.490;26.012;2023-07-22T11:19:17;10.85;;;7.43;;
19776;SDS011;10047;42.490;26.012;2023-07-22T11:25:18;12.20;;;7.80;;
19776;SDS011;10047;42.490;26.012;2023-07-22T11:27:43;9.88;;;7.53;;
19776;SDS011;10047;42.490;26.012;2023-07-22T11:33:39;12.15;;;7.60;;
19776;SDS011;10047;42.490;26.012;2023-07-22T11:36:05;14.07;;;7.65;;
19776;SDS011;10047;42.490;26.012;2023-07-22T11:38:31;11.90;;;7.13;;
19776;SDS011;10047;42.490;26.012;2023-07-22T11:40:57;14.07;;;7.18;;
19776;SDS011;10047;42.490;26.012;2023-07-22T11:43:23;16.25;;;7.32;;
19776;SDS011;10047;42.490;26.012;2023-07-22T11:45:49;11.45;;;7.05;;
19776;SDS011;10047;42.490;26.012;2023-07-22T11:48:14;12.95;;;7.82;;
19776;SDS011;10047;42.490;26.012;2023-07-22T11:54:01;15.43;;;7.93;;
19776;SDS011;10047;42.490;26.012;2023-07-22T11:56:27;14.10;;;7.43;;
19776;SDS011;10047;42.490;26.012;2023-07-22T11:58:54;14.23;;;8.02;;
19776;SDS011;10047;42.490;26.012;2023-07-22T12:01:21;16.38;;;8.30;;
19776;SDS011;10047;42.490;26.012;2023-07-22T12:03:47;12.70;;;8.10;;
19776;SDS011;10047;42.490;26.012;2023-07-22T12:06:13;15.35;;;8.35;;
19776;SDS011;10047;42.490;26.012;2023-07-22T12:08:43;12.98;;;7.70;;
19776;SDS011;10047;42.490;26.012;2023-07-22T12:11:20;17.77;;;8.45;;
19776;SDS011;10047;42.490;26.012;2023-07-22T12:14:03;10.02;;;7.72;;
19776;SDS011;10047;42.490;26.012;2023-07-22T12:16:33;16.27;;;8.23;;
19776;SDS011;10047;42.490;26.012;2023-07-22T12:19:00;15.52;;;8.30;;
19776;SDS011;10047;42.490;26.012;2023-07-22T12:21:26;10.70;;;8.00;;
19776;SDS011;10047;42.490;26.012;2023-07-22T12:23:52;12.13;;;7.57;;
19776;SDS011;10047;42.490;26.012;2023-07-22T12:26:18;10.57;;;8.13;;
19776;SDS011;10047;42.490;26.012;2023-07-22T12:28:44;12.48;;;7.82;;
19776;SDS011;10047;42.490;26.012;2023-07-22T12:31:09;15.18;;;9.13;;
19776;SDS011;10047;42.490;26.012;2023-07-22T12:33:34;15.45;;;8.50;;
19776;SDS011;10047;42.490;26.012;2023-07-22T12:36:00;16.38;;;8.30;;
19776;SDS011;10047;42.490;26.012;2023-07-22T12:38:25;16.42;;;8.73;;
19776;SDS011;10047;42.490;26.012;2023-07-22T12:40:51;17.80;;;8.32;;
19776;SDS011;10047;42.490;26.012;2023-07-22T12:43:16;9.48;;;7.45;;
19776;SDS011;10047;42.490;26.012;2023-07-22T12:45:41;12.65;;;7.47;;
19776;SDS011;10047;42.490;26.012;2023-07-22T12:48:07;15.05;;;7.68;;
19776;SDS011;10047;42.490;26.012;2023-07-22T12:50:32;14.45;;;8.00;;
19776;SDS011;10047;42.490;26.012;2023-07-22T12:56:20;14.75;;;7.88;;
19776;SDS011;10047;42.490;26.012;2023-07-22T12:58:45;13.95;;;7.32;;
19776;SDS011;10047;42.490;26.012;2023-07-22T13:01:10;16.10;;;8.15;;
19776;SDS011;10047;42.490;26.012;2023-07-22T13:03:36;12.35;;;7.50;;
19776;SDS011;10047;42.490;26.012;2023-07-22T13:06:01;15.25;;;7.57;;
19776;SDS011;10047;42.490;26.012;2023-07-22T13:08:27;12.25;;;7.70;;
19776;SDS011;10047;42.490;26.012;2023-07-22T13:10:52;14.05;;;7.35;;
19776;SDS011;10047;42.490;26.012;2023-07-22T13:16:39;18.15;;;8.13;;
19776;SDS011;10047;42.490;26.012;2023-07-22T13:19:04;14.77;;;7.80;;
19776;SDS011;10047;42.490;26.012;2023-07-22T13:21:30;12.60;;;7.72;;
19776;SDS011;10047;42.490;26.012;2023-07-22T13:23:55;16.88;;;8.15;;
19776;SDS011;10047;42.490;26.012;2023-07-22T13:26:21;11.75;;;7.55;;
19776;SDS011;10047;42.490;26.012;2023-07-22T13:28:46;13.18;;;7.50;;
19776;SDS011;10047;42.490;26.012;2023-07-22T13:31:11;12.55;;;7.57;;
19776;SDS011;10047;42.490;26.012;2023-07-22T13:33:37;13.45;;;7.97;;
19776;SDS011;10047;42.490;26.012;2023-07-22T13:36:02;16.10;;;7.95;;
19776;SDS011;10047;42.490;26.012;2023-07-22T13:38:28;14.23;;;7.57;;
19776;SDS011;10047;42.490;26.012;2023-07-22T13:40:53;16.15;;;7.70;;
19776;SDS011;10047;42.490;26.012;2023-07-22T13:43:19;19.20;;;8.02;;
19776;SDS011;10047;42.490;26.012;2023-07-22T13:45:44;15.25;;;7.50;;
19776;SDS011;10047;42.490;26.012;2023-07-22T13:48:09;15.30;;;7.68;;
19776;SDS011;10047;42.490;26.012;2023-07-22T13:50:36;16.27;;;7.72;;
19776;SDS011;10047;42.490;26.012;2023-07-22T13:53:02;13.35;;;7.90;;
19776;SDS011;10047;42.490;26.012;2023-07-22T13:55:27;16.55;;;7.53;;
19776;SDS011;10047;42.490;26.012;2023-07-22T13:57:53;11.85;;;7.43;;
19776;SDS011;10047;42.490;26.012;2023-07-22T14:00:18;15.00;;;7.75;;
19776;SDS011;10047;42.490;26.012;2023-07-22T14:02:43;13.05;;;7.90;;
19776;SDS011;10047;42.490;26.012;2023-07-22T14:05:09;15.75;;;7.70;;
19776;SDS011;10047;42.490;26.012;2023-07-22T14:10:56;17.25;;;7.40;;
19776;SDS011;10047;42.490;26.012;2023-07-22T14:13:21;17.02;;;7.97;;
19776;SDS011;10047;42.490;26.012;2023-07-22T14:15:47;19.85;;;8.07;;
19776;SDS011;10047;42.490;26.012;2023-07-22T14:18:12;26.75;;;9.48;;
19776;SDS011;10047;42.490;26.012;2023-07-22T14:20:42;38.40;;;11.15;;
19776;SDS011;10047;42.490;26.012;2023-07-22T14:23:08;36.90;;;10.68;;
19776;SDS011;10047;42.490;26.012;2023-07-22T14:25:33;29.38;;;9.95;;
19776;SDS011;10047;42.490;26.012;2023-07-22T14:27:59;28.70;;;10.80;;
19776;SDS011;10047;42.490;26.012;2023-07-22T14:30:24;15.70;;;9.55;;
19776;SDS011;10047;42.490;26.012;2023-07-22T14:32:50;22.75;;;8.65;;
19776;SDS011;10047;42.490;26.012;2023-07-22T14:35:15;15.65;;;9.35;;
19776;SDS011;10047;42.490;26.012;2023-07-22T14:37:41;16.73;;;8.85;;
19776;SDS011;10047;42.490;26.012;2023-07-22T14:40:06;18.13;;;9.63;;
19776;SDS011;10047;42.490;26.012;2023-07-22T14:42:33;18.67;;;9.60;;
19776;SDS011;10047;42.490;26.012;2023-07-22T14:44:59;22.02;;;9.80;;
19776;SDS011;10047;42.490;26.012;2023-07-22T14:47:25;22.17;;;9.63;;
19776;SDS011;10047;42.490;26.012;2023-07-22T14:49:51;18.02;;;9.30;;
19776;SDS011;10047;42.490;26.012;2023-07-22T14:52:16;20.48;;;8.77;;
19776;SDS011;10047;42.490;26.012;2023-07-22T14:54:42;18.60;;;8.48;;
19776;SDS011;10047;42.490;26.012;2023-07-22T14:57:08;17.23;;;9.10;;
19776;SDS011;10047;42.490;26.012;2023-07-22T14:59:33;16.13;;;9.07;;
19776;SDS011;10047;42.490;26.012;2023-07-22T15:01:59;20.55;;;8.93;;
19776;SDS011;10047;42.490;26.012;2023-07-22T15:04:24;18.95;;;9.43;;
19776;SDS011;10047;42.490;26.012;2023-07-22T15:07:02;18.17;;;9.15;;
19776;SDS011;10047;42.490;26.012;2023-07-22T15:09:27;21.38;;;8.18;;
19776;SDS011;10047;42.490;26.012;2023-07-22T15:11:53;16.98;;;8.57;;
19776;SDS011;10047;42.490;26.012;2023-07-22T15:14:18;16.52;;;8.38;;
19776;SDS011;10047;42.490;26.012;2023-07-22T15:16:45;18.00;;;8.65;;
19776;SDS011;10047;42.490;26.012;2023-07-22T15:19:10;14.38;;;8.48;;
19776;SDS011;10047;42.490;26.012;2023-07-22T15:21:36;15.20;;;9.05;;
19776;SDS011;10047;42.490;26.012;2023-07-22T15:24:01;17.98;;;8.75;;
19776;SDS011;10047;42.490;26.012;2023-07-22T15:26:26;15.88;;;8.27;;
19776;SDS011;10047;42.490;26.012;2023-07-22T15:28:52;16.00;;;8.57;;
19776;SDS011;10047;42.490;26.012;2023-07-22T15:31:18;16.80;;;8.80;;
19776;SDS011;10047;42.490;26.012;2023-07-22T15:33:44;16.70;;;7.95;;
19776;SDS011;10047;42.490;26.012;2023-07-22T15:36:10;15.02;;;8.20;;
19776;SDS011;10047;42.490;26.012;2023-07-22T15:38:36;16.65;;;8.30;;
19776;SDS011;10047;42.490;26.012;2023-07-22T15:41:01;15.07;;;7.93;;
19776;SDS011;10047;42.490;26.012;2023-07-22T15:43:27;13.80;;;7.93;;
19776;SDS011;10047;42.490;26.012;2023-07-22T15:45:53;17.80;;;7.68;;
19776;SDS011;10047;42.490;26.012;2023-07-22T15:48:18;16.38;;;7.57;;
19776;SDS011;10047;42.490;26.012;2023-07-22T15:50:43;16.98;;;8.05;;
19776;SDS011;10047;42.490;26.012;2023-07-22T15:53:09;13.90;;;7.88;;
19776;SDS011;10047;42.490;26.012;2023-07-22T15:55:34;14.98;;;7.97;;
19776;SDS011;10047;42.490;26.012;2023-07-22T15:58:00;20.52;;;8.70;;
19776;SDS011;10047;42.490;26.012;2023-07-22T16:00:25;19.85;;;8.13;;
19776;SDS011;10047;42.490;26.012;2023-07-22T16:02:51;17.55;;;8.30;;
19776;SDS011;10047;42.490;26.012;2023-07-22T16:05:16;45.15;;;9.68;;
19776;SDS011;10047;42.490;26.012;2023-07-22T16:07:42;17.67;;;8.00;;
19776;SDS011;10047;42.490;26.012;2023-07-22T16:10:09;17.13;;;8.30;;
19776;SDS011;10047;42.490;26.012;2023-07-22T16:12:34;20.05;;;9.18;;
19776;SDS011;10047;42.490;26.012;2023-07-22T16:15:00;18.00;;;9.43;;
19776;SDS011;10047;42.490;26.012;2023-07-22T16:17:25;21.10;;;10.13;;
19776;SDS011;10047;42.490;26.012;2023-07-22T16:19:50;23.58;;;9.50;;
19776;SDS011;10047;42.490;26.012;2023-07-22T16:22:16;19.77;;;9.10;;
19776;SDS011;10047;42.490;26.012;2023-07-22T16:24:41;20.23;;;10.20;;
19776;SDS011;10047;42.490;26.012;2023-07-22T16:27:07;18.05;;;9.40;;
19776;SDS011;10047;42.490;26.012;2023-07-22T16:29:33;19.08;;;8.70;;
19776;SDS011;10047;42.490;26.012;2023-07-22T16:32:01;17.08;;;9.02;;
19776;SDS011;10047;42.490;26.012;2023-07-22T16:37:48;17.00;;;8.63;;
19776;SDS011;10047;42.490;26.012;2023-07-22T16:40:13;20.05;;;8.88;;
19776;SDS011;10047;42.490;26.012;2023-07-22T16:42:39;15.45;;;8.18;;
19776;SDS011;10047;42.490;26.012;2023-07-22T16:45:04;18.45;;;7.80;;